Time;durP1;ratioP1;P1;durP2;ratioP2;P2;SDS_P1;SDS_P2;PMS_P1;PMS_P2;Temp;Humidity;BMP_temperature;BMP_pressure;BME280_temperature;BME280_humidity;BME280_pressure;Samples;Min_cycle;Max_cycle;Signal;HPM_P1;HPM_P2
2021/01/15 00:20:11;;;;;;;7.97;5.80;;;;;;;-4.82;76.14;97836.11;1736365;79;21338;-64
2021/01/15 00:26:24;;;;;;;6.90;5.55;;;;;;;-4.85;75.97;97840.94;1680599;84;21025;-63
2021/01/15 00:29:22;;;;;;;7.50;6.12;;;;;;;-4.83;76.04;97840.46;1681013;85;20954;-63
2021/01/15 00:41:42;;;;;;;8.75;6.33;;;;;;;-4.81;76.46;97854.42;1726324;83;20952;-63
2021/01/15 00:44:19;;;;;;;10.13;7.33;;;;;;;-4.79;76.68;97857.87;1731747;80;21109;-63
2021/01/15 00:52:54;;;;;;;6.72;5.20;;;;;;;-4.80;77.41;97860.06;1710404;80;21083;-63
2021/01/15 00:55:24;;;;;;;8.95;6.70;;;;;;;-4.81;77.56;97855.73;1697119;83;20959;-64
2021/01/15 01:43:30;;;;;;;9.40;6.45;;;;;;;-5.07;77.27;97859.21;1779813;78;20954;-63
2021/01/15 02:05:07;;;;;;;7.60;5.42;;;;;;;-5.15;76.82;97869.34;1701505;79;20948;-63
2021/01/15 02:07:58;;;;;;;9.50;6.35;;;;;;;-5.16;76.83;97875.45;1742881;80;20923;-63
2021/01/15 02:11:10;;;;;;;10.43;5.87;;;;;;;-5.17;76.70;97870.24;1743161;78;21073;-61
2021/01/15 02:14:30;;;;;;;8.18;5.72;;;;;;;-5.19;76.72;97870.27;1717798;81;21031;-64
2021/01/15 02:17:17;;;;;;;8.45;6.22;;;;;;;-5.20;76.57;97877.72;1712094;83;21547;-63
2021/01/15 02:30:13;;;;;;;10.82;6.62;;;;;;;-5.31;76.83;97871.33;1712211;81;21053;-63
2021/01/15 02:48:05;;;;;;;8.30;5.92;;;;;;;-5.28;77.37;97895.30;1717871;81;20935;-64
2021/01/15 02:50:35;;;;;;;9.48;6.55;;;;;;;-5.29;77.33;97900.95;1705193;83;21386;-62
2021/01/15 02:53:15;;;;;;;8.50;6.37;;;;;;;-5.31;77.40;97889.66;1688364;85;20960;-63
2021/01/15 02:58:36;;;;;;;8.08;6.47;;;;;;;-5.31;77.39;97873.09;1707721;80;21063;-62
2021/01/15 03:13:02;;;;;;;8.73;7.15;;;;;;;-5.32;77.41;97889.22;1736445;79;20995;-63
2021/01/15 03:40:23;;;;;;;9.78;7.80;;;;;;;-5.24;78.22;97907.89;1727621;83;21357;-62
2021/01/15 03:42:56;;;;;;;12.43;9.33;;;;;;;-5.24;78.20;97911.37;1727526;83;20943;-63
2021/01/15 03:45:44;;;;;;;10.43;7.83;;;;;;;-5.22;78.30;97912.20;1708446;79;20947;-63
2021/01/15 03:54:56;;;;;;;10.60;8.80;;;;;;;-5.16;78.16;97914.73;1724655;80;21028;-63
2021/01/15 04:00:27;;;;;;;12.75;9.78;;;;;;;-5.14;78.20;97910.36;1738966;80;20987;-64
2021/01/15 04:06:09;;;;;;;10.08;8.25;;;;;;;-5.11;78.12;97905.08;1746552;80;20940;-63
2021/01/15 04:17:18;;;;;;;9.90;7.78;;;;;;;-5.15;78.14;97904.70;1677392;80;21331;-62
2021/01/15 04:45:58;;;;;;;19.98;15.75;;;;;;;-5.13;78.47;97937.41;1737994;80;21455;-63
2021/01/15 04:48:43;;;;;;;18.87;12.93;;;;;;;-5.13;78.42;97944.80;1746908;80;21365;-63
2021/01/15 05:06:51;;;;;;;16.00;11.45;;;;;;;-5.09;77.77;97956.98;1722776;80;21243;-64
2021/01/15 05:12:41;;;;;;;15.03;10.25;;;;;;;-5.03;77.62;97966.94;1701595;80;21024;-64
2021/01/15 05:15:15;;;;;;;11.25;7.83;;;;;;;-5.00;77.50;97965.59;1693018;82;20944;-63
2021/01/15 05:39:30;;;;;;;13.45;10.15;;;;;;;-5.04;76.25;97984.88;1717085;83;20956;-63
2021/01/15 05:42:20;;;;;;;12.18;9.38;;;;;;;-5.04;76.37;97992.73;1717045;83;21378;-63
2021/01/15 05:45:15;;;;;;;12.07;9.25;;;;;;;-5.03;76.52;98000.57;1717264;83;20936;-65
2021/01/15 05:48:05;;;;;;;10.25;8.60;;;;;;;-5.03;76.78;98007.54;1717266;83;21051;-66
2021/01/15 05:50:54;;;;;;;13.48;9.58;;;;;;;-5.04;76.46;98001.45;1680358;83;20943;-64
2021/01/15 05:57:00;;;;;;;11.55;8.75;;;;;;;-5.03;76.09;98012.78;1750260;80;21060;-65
2021/01/15 06:21:40;;;;;;;11.05;7.28;;;;;;;-5.18;76.82;98051.83;1714387;83;21013;-63
2021/01/15 06:24:38;;;;;;;12.85;9.83;;;;;;;-5.20;76.69;98053.57;1714295;82;21028;-64
2021/01/15 06:27:07;;;;;;;12.95;9.10;;;;;;;-5.23;76.56;98056.22;1711306;80;21006;-63
2021/01/15 06:38:52;;;;;;;8.90;7.40;;;;;;;-5.30;76.55;98089.05;1699397;83;20942;-64
2021/01/15 06:41:35;;;;;;;12.25;8.33;;;;;;;-5.30;76.49;98092.09;1711345;82;21572;-64
2021/01/15 06:47:27;;;;;;;9.23;7.40;;;;;;;-5.28;76.71;98094.27;1759652;81;21366;-65
2021/01/15 07:13:38;;;;;;;13.32;9.98;;;;;;;-5.13;77.03;98126.81;1719885;82;21048;-68
2021/01/15 07:43:43;;;;;;;12.50;8.93;;;;;;;-4.89;75.82;98160.16;1696480;84;20943;-64
2021/01/15 07:46:28;;;;;;;11.97;9.10;;;;;;;-4.86;75.29;98165.82;1703755;81;20951;-63
2021/01/15 07:49:12;;;;;;;23.57;17.02;;;;;;;-4.83;75.46;98165.34;1660038;85;21015;-66
2021/01/15 08:06:42;;;;;;;14.25;10.72;;;;;;;-4.68;74.32;98194.44;1714237;83;21346;-65
2021/01/15 08:09:29;;;;;;;11.15;8.50;;;;;;;-4.68;73.45;98197.06;1740409;79;21583;-70
2021/01/15 08:12:17;;;;;;;7.65;5.78;;;;;;;-4.74;72.16;98197.13;1747680;81;21097;-65
2021/01/15 08:14:49;;;;;;;9.55;8.08;;;;;;;-4.77;71.96;98205.88;1741121;82;21274;-66
2021/01/15 08:44:41;;;;;;;7.58;5.83;;;;;;;-4.67;70.46;98247.71;1667987;81;21168;-66
2021/01/15 08:47:13;;;;;;;8.18;6.08;;;;;;;-4.61;70.47;98240.64;1690451;81;21252;-66
2021/01/15 08:52:54;;;;;;;30.88;18.57;;;;;;;-4.49;69.61;98246.20;1728375;78;21354;-64
2021/01/15 09:04:32;;;;;;;10.75;7.95;;;;;;;-4.28;68.90;98267.81;1743537;79;21023;-66
2021/01/15 09:07:10;;;;;;;11.13;7.87;;;;;;;-4.23;68.90;98275.17;1717385;83;20967;-74
2021/01/15 09:34:56;;;;;;;18.48;13.10;;;;;;;-3.90;65.46;98282.20;1759305;81;20938;-64
2021/01/15 10:10:42;;;;;;;9.40;8.03;;;;;;;-3.87;65.03;98318.90;1676256;81;21139;-65
2021/01/15 10:13:29;;;;;;;10.28;8.88;;;;;;;-3.85;64.58;98324.98;1741901;82;21144;-64
2021/01/15 10:27:39;;;;;;;9.33;7.85;;;;;;;-3.47;63.83;98314.41;1731015;80;21037;-66
2021/01/15 10:33:03;;;;;;;8.90;7.78;;;;;;;-3.44;62.68;98316.99;1710295;79;23998;-65
2021/01/15 10:58:47;;;;;;;8.30;6.97;;;;;;;-3.54;61.74;98302.28;1722017;79;20970;-65
2021/01/15 11:01:17;;;;;;;7.37;5.30;;;;;;;-3.62;60.06;98304.15;1690544;82;21511;-65
2021/01/15 11:03:46;;;;;;;6.60;5.62;;;;;;;-3.76;59.54;98305.19;1699587;84;20917;-65
2021/01/15 11:06:21;;;;;;;6.75;5.87;;;;;;;-3.86;59.84;98300.52;1706466;83;21019;-66
2021/01/15 11:08:50;;;;;;;7.72;5.62;;;;;;;-3.97;60.21;98306.77;1706510;84;20954;-65
2021/01/15 11:11:17;;;;;;;9.18;6.20;;;;;;;-4.09;60.56;98295.55;1706559;84;21202;-66
2021/01/15 11:13:45;;;;;;;8.93;5.37;;;;;;;-4.18;59.75;98302.20;1706409;84;21029;-65
2021/01/15 11:16:14;;;;;;;9.18;4.97;;;;;;;-4.28;59.80;98300.14;1706504;84;21010;-65
2021/01/15 11:18:42;;;;;;;6.72;5.08;;;;;;;-4.34;60.23;98300.66;1706456;83;21064;-65
2021/01/15 11:21:10;;;;;;;9.55;6.35;;;;;;;-4.43;60.69;98292.02;1706515;84;20946;-65
2021/01/15 11:23:38;;;;;;;9.23;8.08;;;;;;;-4.48;61.24;98282.45;1706509;84;21356;-65
2021/01/15 11:26:07;;;;;;;11.35;7.00;;;;;;;-4.47;61.59;98294.69;1706559;84;20926;-64
2021/01/15 11:28:35;;;;;;;7.87;6.33;;;;;;;-4.49;61.91;98289.88;1706648;84;20914;-65
2021/01/15 11:31:03;;;;;;;8.28;6.10;;;;;;;-4.48;61.66;98287.70;1706639;83;21042;-64
2021/01/15 11:33:30;;;;;;;7.55;5.85;;;;;;;-4.51;61.13;98288.59;1706707;84;21494;-65
2021/01/15 11:35:59;;;;;;;6.85;5.42;;;;;;;-4.54;60.96;98281.65;1706750;83;22258;-65
2021/01/15 11:38:28;;;;;;;8.08;6.58;;;;;;;-4.57;61.11;98286.06;1706585;83;20966;-65
2021/01/15 11:40:55;;;;;;;7.35;5.78;;;;;;;-4.60;61.37;98283.47;1706711;84;20958;-66
2021/01/15 11:43:22;;;;;;;8.48;5.95;;;;;;;-4.62;61.68;98276.05;1706607;84;21025;-66
2021/01/15 11:45:50;;;;;;;6.75;6.05;;;;;;;-4.60;62.06;98272.53;1706747;84;21419;-65
2021/01/15 11:48:18;;;;;;;9.58;7.87;;;;;;;-4.60;62.28;98273.84;1706553;84;21376;-66
2021/01/15 11:50:45;;;;;;;8.40;6.75;;;;;;;-4.59;62.57;98273.39;1706600;84;20958;-65
2021/01/15 11:53:13;;;;;;;10.08;7.30;;;;;;;-4.62;62.10;98266.88;1706623;84;21021;-66
2021/01/15 11:55:41;;;;;;;8.20;6.28;;;;;;;-4.65;62.22;98266.91;1681389;85;20953;-66
2021/01/15 11:58:08;;;;;;;7.92;5.83;;;;;;;-4.63;62.23;98270.40;1706631;84;20931;-66
2021/01/15 12:00:36;;;;;;;9.23;6.00;;;;;;;-4.68;62.12;98267.83;1717281;81;21206;-66
2021/01/15 12:03:06;;;;;;;8.40;5.97;;;;;;;-4.71;62.16;98267.85;1721808;82;21437;-66
2021/01/15 12:05:33;;;;;;;8.28;6.33;;;;;;;-4.75;62.04;98263.06;1717103;83;20974;-66
2021/01/15 12:08:02;;;;;;;8.90;6.83;;;;;;;-4.82;62.12;98257.47;1714197;82;20997;-67
2021/01/15 12:10:31;;;;;;;6.37;5.72;;;;;;;-4.85;62.30;98256.65;1714277;83;20934;-66
2021/01/15 12:13:00;;;;;;;7.50;5.65;;;;;;;-4.86;62.44;98262.31;1714361;83;22910;-63
2021/01/15 12:15:30;;;;;;;9.13;7.35;;;;;;;-4.88;62.55;98260.61;1714212;83;20965;-63
2021/01/15 12:18:00;;;;;;;8.48;6.60;;;;;;;-4.88;62.94;98257.53;1714276;83;20945;-62
2021/01/15 12:20:39;;;;;;;6.72;5.62;;;;;;;-4.86;63.03;98261.45;1714352;83;20906;-65
2021/01/15 12:23:12;;;;;;;10.28;5.67;;;;;;;-4.86;62.49;98258.83;1714100;83;21021;-65
2021/01/15 12:25:42;;;;;;;7.25;5.47;;;;;;;-4.87;62.52;98253.16;1714283;83;21385;-65
2021/01/15 12:28:15;;;;;;;6.87;4.97;;;;;;;-4.89;62.60;98251.86;1714211;81;20970;-65
2021/01/15 12:30:45;;;;;;;8.10;6.17;;;;;;;-4.88;62.50;98257.53;1714189;82;20969;-65
2021/01/15 12:33:15;;;;;;;7.55;5.97;;;;;;;-4.89;62.61;98255.78;1714144;83;21625;-65
2021/01/15 12:35:47;;;;;;;8.65;5.87;;;;;;;-4.88;62.73;98257.98;1714360;83;20993;-65
2021/01/15 12:38:23;;;;;;;7.22;5.75;;;;;;;-4.88;62.75;98256.22;1714403;83;24142;-65
2021/01/15 12:40:54;;;;;;;9.28;6.17;;;;;;;-4.87;62.76;98256.66;1714157;83;21045;-64
2021/01/15 12:43:23;;;;;;;10.43;6.87;;;;;;;-4.87;62.63;98265.83;1714210;83;20977;-64
2021/01/15 12:45:52;;;;;;;6.53;5.40;;;;;;;-4.87;62.74;98257.08;1714173;83;20985;-66
2021/01/15 12:48:22;;;;;;;8.75;5.65;;;;;;;-4.89;62.60;98262.34;1714191;83;20969;-65
2021/01/15 12:50:51;;;;;;;7.08;5.97;;;;;;;-4.95;62.58;98264.59;1714248;83;21210;-65
2021/01/15 12:53:21;;;;;;;7.75;5.85;;;;;;;-4.99;62.77;98255.47;1714194;83;21509;-65
2021/01/15 12:55:51;;;;;;;6.87;4.97;;;;;;;-5.04;62.86;98256.81;1714228;82;20950;-65
2021/01/15 12:58:22;;;;;;;7.37;5.35;;;;;;;-5.04;63.00;98258.58;1714306;83;21616;-66
2021/01/15 13:00:51;;;;;;;8.98;6.00;;;;;;;-5.07;63.20;98266.01;1709122;83;20950;-64
2021/01/15 13:03:22;;;;;;;7.92;6.30;;;;;;;-5.08;63.26;98265.57;1706570;84;21211;-64
2021/01/15 13:05:50;;;;;;;8.15;4.78;;;;;;;-5.12;63.25;98264.73;1670325;85;20971;-64
2021/01/15 13:08:19;;;;;;;10.05;7.35;;;;;;;-5.14;63.06;98270.86;1711920;83;21382;-65
2021/01/15 13:10:48;;;;;;;7.58;6.28;;;;;;;-5.19;63.15;98276.13;1681839;85;20915;-64
2021/01/15 13:13:15;;;;;;;7.80;5.97;;;;;;;-5.23;63.15;98269.63;1681743;85;21006;-65
2021/01/15 13:15:43;;;;;;;8.63;6.55;;;;;;;-5.24;63.25;98277.07;1681359;85;21211;-65
2021/01/15 13:18:13;;;;;;;9.50;6.08;;;;;;;-5.29;63.43;98264.02;1659947;86;21018;-65
2021/01/15 13:20:42;;;;;;;7.53;6.10;;;;;;;-5.34;63.49;98277.14;1707215;84;20963;-64
2021/01/15 13:23:12;;;;;;;10.65;7.30;;;;;;;-5.38;63.70;98271.94;1708693;84;21083;-65
2021/01/15 13:25:40;;;;;;;14.75;8.40;;;;;;;-5.45;63.83;98271.98;1708863;84;20939;-64
2021/01/15 13:28:09;;;;;;;9.10;7.67;;;;;;;-5.46;63.98;98275.46;1708770;84;21363;-65
2021/01/15 13:30:36;;;;;;;10.32;7.80;;;;;;;-5.46;64.27;98275.46;1708819;84;20955;-66
2021/01/15 13:33:08;;;;;;;9.95;8.20;;;;;;;-5.47;64.18;98268.93;1707497;84;21018;-66
2021/01/15 13:35:36;;;;;;;8.90;6.45;;;;;;;-5.49;64.21;98270.25;1708755;84;20903;-65
2021/01/15 13:38:09;;;;;;;11.00;7.72;;;;;;;-5.49;64.18;98271.56;1708707;84;20979;-66
2021/01/15 13:40:37;;;;;;;9.93;7.87;;;;;;;-5.51;64.24;98268.09;1688055;84;21273;-65
2021/01/15 13:43:06;;;;;;;9.83;8.15;;;;;;;-5.53;64.17;98266.39;1708766;84;20950;-64
2021/01/15 13:45:34;;;;;;;10.93;8.48;;;;;;;-5.56;64.27;98267.72;1708839;84;20967;-65
2021/01/15 13:48:04;;;;;;;8.90;7.10;;;;;;;-5.56;64.25;98275.56;1708787;83;21026;-65
2021/01/15 13:53:21;;;;;;;9.75;6.25;;;;;;;-5.62;64.27;98271.23;1708835;84;21202;-64
2021/01/15 13:55:52;;;;;;;10.03;6.87;;;;;;;-5.64;64.16;98271.69;1708827;84;20943;-65
2021/01/15 13:58:23;;;;;;;10.05;7.03;;;;;;;-5.67;64.23;98271.26;1708850;84;21503;-65
2021/01/15 14:00:52;;;;;;;11.97;8.15;;;;;;;-5.66;64.39;98277.34;1695333;83;20954;-65
2021/01/15 14:03:21;;;;;;;10.78;8.30;;;;;;;-5.66;64.57;98271.70;1673356;85;21014;-66
2021/01/15 14:05:53;;;;;;;9.03;6.58;;;;;;;-5.69;64.29;98269.52;1673999;85;21384;-67
2021/01/15 14:08:23;;;;;;;9.28;6.15;;;;;;;-5.67;64.16;98273.02;1673945;84;21077;-67
2021/01/15 14:10:51;;;;;;;9.33;7.28;;;;;;;-5.67;64.25;98275.63;1673912;85;21038;-65
2021/01/15 14:13:20;;;;;;;10.00;7.35;;;;;;;-5.68;64.40;98276.50;1674153;85;21058;-66
2021/01/15 14:15:48;;;;;;;10.18;8.35;;;;;;;-5.66;64.54;98282.58;1674171;85;21026;-66
2021/01/15 14:18:16;;;;;;;9.58;7.33;;;;;;;-5.64;64.32;98283.47;1674030;85;22312;-67
2021/01/15 14:20:43;;;;;;;9.68;7.28;;;;;;;-5.65;64.40;98279.95;1674058;85;21973;-65
2021/01/15 14:23:11;;;;;;;9.38;7.67;;;;;;;-5.63;64.15;98277.33;1674085;85;21010;-67
2021/01/15 14:25:40;;;;;;;10.05;6.90;;;;;;;-5.65;63.90;98279.09;1673568;85;20962;-66
2021/01/15 14:28:09;;;;;;;11.55;8.00;;;;;;;-5.68;63.99;98273.88;1674125;85;21045;-66
2021/01/15 14:30:37;;;;;;;13.45;9.73;;;;;;;-5.68;64.08;98277.81;1674187;85;21394;-63
2021/01/15 14:33:05;;;;;;;11.48;8.45;;;;;;;-5.68;63.85;98285.66;1674058;85;21057;-69
2021/01/15 14:35:33;;;;;;;10.10;7.72;;;;;;;-5.66;64.03;98290.44;1674430;85;21058;-66
2021/01/15 14:38:01;;;;;;;9.83;7.05;;;;;;;-5.68;64.08;98290.89;1674577;85;20946;-61
2021/01/15 14:40:30;;;;;;;9.50;6.62;;;;;;;-5.69;63.87;98287.42;1674815;85;20946;-62
2021/01/15 14:42:59;;;;;;;8.38;6.05;;;;;;;-5.71;63.58;98283.06;1674699;84;22290;-62
2021/01/15 14:45:28;;;;;;;9.93;7.35;;;;;;;-5.70;63.98;98287.42;1673500;85;21074;-65
2021/01/15 14:47:58;;;;;;;10.40;8.08;;;;;;;-5.73;63.59;98283.52;1671925;84;21763;-67
2021/01/15 14:50:27;;;;;;;8.70;6.60;;;;;;;-5.72;63.81;98277.39;1673264;85;21085;-67
2021/01/15 14:52:56;;;;;;;8.05;6.00;;;;;;;-5.71;63.78;98284.37;1674189;84;21018;-63
2021/01/15 14:55:32;;;;;;;9.88;7.22;;;;;;;-5.75;63.65;98277.44;1674156;85;23532;-63
2021/01/15 14:57:58;;;;;;;8.68;7.17;;;;;;;-5.78;63.45;98291.39;1674361;85;20958;-62
2021/01/15 15:00:28;;;;;;;8.35;6.55;;;;;;;-5.83;63.69;98286.19;1682880;83;20948;-64
2021/01/15 15:02:55;;;;;;;9.58;7.47;;;;;;;-5.88;63.49;98286.66;1711970;83;20999;-64
2021/01/15 15:05:23;;;;;;;12.13;7.60;;;;;;;-5.94;63.66;98287.99;1708811;84;21026;-65
2021/01/15 15:07:52;;;;;;;11.33;8.15;;;;;;;-5.99;63.80;98289.80;1708785;83;21373;-63
2021/01/15 15:10:21;;;;;;;15.30;9.03;;;;;;;-6.05;63.86;98296.37;1708739;84;20974;-65
2021/01/15 15:12:51;;;;;;;12.93;8.50;;;;;;;-6.12;63.95;98290.72;1708792;84;20943;-64
2021/01/15 15:15:21;;;;;;;11.00;8.45;;;;;;;-6.18;64.13;98289.88;1708537;83;21511;-65
2021/01/15 15:17:50;;;;;;;11.65;8.13;;;;;;;-6.23;64.28;98289.03;1708811;84;20935;-64
2021/01/15 15:20:17;;;;;;;10.65;7.45;;;;;;;-6.28;64.38;98286.86;1708870;84;22112;-64
2021/01/15 15:22:46;;;;;;;13.80;9.30;;;;;;;-6.36;64.49;98289.94;1708631;83;20989;-65
2021/01/15 15:25:16;;;;;;;10.23;7.85;;;;;;;-6.42;64.74;98289.96;1708866;83;21440;-64
2021/01/15 15:27:43;;;;;;;13.10;8.18;;;;;;;-6.50;64.89;98296.52;1708756;84;21006;-63
2021/01/15 15:30:13;;;;;;;10.95;7.53;;;;;;;-6.54;65.05;98293.05;1708769;83;20896;-62
2021/01/15 15:32:43;;;;;;;12.10;9.33;;;;;;;-6.60;65.29;98299.59;1708819;83;21442;-65
2021/01/15 15:35:11;;;;;;;13.43;8.53;;;;;;;-6.65;65.37;98296.13;1708701;84;20963;-64
2021/01/15 15:37:39;;;;;;;15.55;8.80;;;;;;;-6.71;65.55;98298.75;1708795;84;20947;-64
2021/01/15 15:40:10;;;;;;;12.98;9.18;;;;;;;-6.76;65.71;98292.67;1708717;83;20939;-63
2021/01/15 15:42:39;;;;;;;14.43;10.05;;;;;;;-6.82;65.83;98296.16;1708843;84;20903;-63
2021/01/15 15:45:09;;;;;;;18.20;10.65;;;;;;;-6.86;66.11;98293.55;1708829;83;22271;-64
2021/01/15 15:47:36;;;;;;;17.52;11.85;;;;;;;-6.93;66.14;98293.55;1708836;83;21428;-64
2021/01/15 15:50:04;;;;;;;19.52;11.22;;;;;;;-6.97;66.36;98289.64;1708766;84;21022;-65
2021/01/15 15:52:33;;;;;;;19.80;11.43;;;;;;;-7.02;66.55;98292.25;1708774;84;21424;-65
2021/01/15 15:55:00;;;;;;;19.55;11.53;;;;;;;-7.05;66.66;98294.87;1708736;84;20939;-65
2021/01/15 15:57:27;;;;;;;23.50;13.18;;;;;;;-7.10;66.73;98284.42;1708872;83;21635;-64
2021/01/15 15:59:56;;;;;;;25.75;13.45;;;;;;;-7.13;66.87;98292.70;1708685;83;21022;-65
2021/01/15 16:02:24;;;;;;;26.15;13.93;;;;;;;-7.17;66.91;98293.15;1678291;83;21033;-65
2021/01/15 16:04:51;;;;;;;27.02;13.55;;;;;;;-7.18;67.07;98294.45;1674637;85;20962;-64
2021/01/15 16:07:21;;;;;;;24.32;13.15;;;;;;;-7.21;67.17;98291.39;1716372;83;20947;-65
2021/01/15 16:09:48;;;;;;;26.17;12.53;;;;;;;-7.22;67.17;98294.00;1716406;83;21391;-62
2021/01/15 16:12:16;;;;;;;16.93;11.55;;;;;;;-7.26;67.32;98288.78;1716399;83;21032;-65
2021/01/15 16:14:44;;;;;;;14.35;9.55;;;;;;;-7.27;67.37;98283.16;1706752;83;20991;-64
2021/01/15 16:17:12;;;;;;;19.95;13.18;;;;;;;-7.29;67.42;98291.39;1706581;84;21100;-66
2021/01/15 16:19:41;;;;;;;33.35;20.62;;;;;;;-7.30;67.43;98284.45;1706608;83;20951;-64
2021/01/15 16:22:13;;;;;;;17.87;11.83;;;;;;;-7.30;67.58;98285.76;1706765;84;21384;-63
2021/01/15 16:24:40;;;;;;;13.08;8.28;;;;;;;-7.29;67.58;98288.78;1706593;83;20947;-65
2021/01/15 16:27:12;;;;;;;12.70;8.05;;;;;;;-7.27;67.44;98285.77;1706604;84;20896;-64
2021/01/15 16:29:40;;;;;;;;;;;;;;;-7.25;67.42;98290.98;1709095;84;20935;-64
2021/01/15 16:32:08;;;;;;;11.18;7.80;;;;;;;-7.20;67.40;98287.07;1706689;84;20137;-64
2021/01/15 16:34:37;;;;;;;10.10;7.37;;;;;;;-7.19;67.33;98283.56;1706589;84;21203;-64
2021/01/15 16:37:06;;;;;;;11.83;8.15;;;;;;;-7.14;67.21;98293.56;1706551;84;20975;-64
2021/01/15 16:39:33;;;;;;;11.57;8.18;;;;;;;-7.11;67.13;98289.64;1706536;84;21018;-63
2021/01/15 16:42:09;;;;;;;14.13;9.07;;;;;;;-7.07;66.86;98294.45;1706698;84;21380;-64
2021/01/15 16:44:36;;;;;;;12.37;9.33;;;;;;;-7.05;66.90;98290.95;1706614;82;21483;-64
2021/01/15 16:47:05;;;;;;;12.15;9.35;;;;;;;-7.03;66.57;98299.67;1706587;84;21372;-64
2021/01/15 16:49:34;;;;;;;12.18;9.20;;;;;;;-7.00;66.57;98296.17;1706518;84;20962;-64
2021/01/15 16:52:06;;;;;;;11.90;9.05;;;;;;;-6.97;66.57;98302.28;1706629;84;20962;-64
2021/01/15 16:54:33;;;;;;;10.30;7.40;;;;;;;-6.93;66.38;98304.00;1706481;84;22050;-63
2021/01/15 16:57:00;;;;;;;10.30;8.10;;;;;;;-6.88;66.12;98295.30;1706607;84;20934;-64
2021/01/15 16:59:29;;;;;;;12.03;7.47;;;;;;;-6.85;65.99;98303.14;1706602;84;21457;-64
2021/01/15 17:01:56;;;;;;;9.98;7.05;;;;;;;-6.81;65.69;98302.23;1706661;83;20988;-64
2021/01/15 17:04:23;;;;;;;11.38;8.10;;;;;;;-6.78;65.65;98305.73;1676663;85;21571;-64
2021/01/15 17:06:52;;;;;;;14.78;9.48;;;;;;;-6.75;65.83;98301.81;1676703;85;20943;-64
2021/01/15 17:09:21;;;;;;;21.68;12.50;;;;;;;-6.71;65.72;98305.28;1676790;85;20943;-63
2021/01/15 17:11:48;;;;;;;17.65;11.43;;;;;;;-6.67;65.64;98310.92;1691256;84;21372;-65
2021/01/15 17:14:16;;;;;;;20.45;14.15;;;;;;;-6.65;65.67;98303.97;1689164;85;21441;-65
2021/01/15 17:16:43;;;;;;;19.37;12.93;;;;;;;-6.63;65.70;98303.52;1689280;85;21074;-65
2021/01/15 17:19:11;;;;;;;19.62;11.75;;;;;;;-6.61;65.45;98297.84;1689219;85;20946;-64
2021/01/15 17:21:43;;;;;;;21.65;12.78;;;;;;;-6.60;65.15;98302.20;1689322;85;20904;-64
2021/01/15 17:24:11;;;;;;;17.62;11.18;;;;;;;-6.60;64.87;98302.20;1689361;85;22267;-64
2021/01/15 17:26:43;;;;;;;15.23;9.10;;;;;;;-6.61;64.91;98299.59;1689191;85;20971;-63
2021/01/15 17:29:11;;;;;;;15.45;10.00;;;;;;;-6.61;64.84;98296.53;1689023;84;20956;-63
2021/01/15 17:31:45;;;;;;;17.02;11.57;;;;;;;-6.62;64.42;98290.90;1689233;84;20936;-64
2021/01/15 17:34:20;;;;;;;15.08;10.65;;;;;;;-6.62;64.39;98290.90;1689254;85;21042;-65
2021/01/15 17:36:50;;;;;;;17.73;12.23;;;;;;;-6.62;64.34;98288.28;1689290;84;21274;-64
2021/01/15 17:39:18;;;;;;;16.87;12.75;;;;;;;-6.62;64.25;98290.90;1689208;85;20991;-65
2021/01/15 17:41:45;;;;;;;14.33;9.53;;;;;;;-6.65;64.25;98277.84;1689312;85;21024;-63
2021/01/15 17:44:13;;;;;;;16.73;10.98;;;;;;;-6.65;64.11;98280.45;1689147;85;21047;-64
2021/01/15 17:46:42;;;;;;;18.62;12.70;;;;;;;-6.67;64.02;98282.18;1689249;85;20944;-63
2021/01/15 17:49:10;;;;;;;19.17;11.43;;;;;;;-6.67;64.02;98290.02;1689246;85;21229;-65
2021/01/15 17:51:40;;;;;;;17.95;11.30;;;;;;;-6.66;64.10;98283.93;1689149;84;20983;-63
2021/01/15 17:54:08;;;;;;;16.60;11.40;;;;;;;-6.65;64.10;98284.38;1689245;85;20963;-64
2021/01/15 17:56:36;;;;;;;14.30;10.70;;;;;;;-6.68;64.00;98284.38;1689127;85;21047;-63
2021/01/15 17:59:03;;;;;;;15.88;11.85;;;;;;;-6.68;64.03;98280.46;1689230;84;21471;-63
2021/01/15 18:01:31;;;;;;;17.45;13.13;;;;;;;-6.69;64.06;98281.33;1689760;83;21385;-63
2021/01/15 18:03:59;;;;;;;21.00;13.40;;;;;;;-6.69;64.17;98276.09;1693062;84;21505;-64
2021/01/15 18:06:27;;;;;;;19.15;12.78;;;;;;;-6.68;64.29;98283.08;1693450;84;21003;-64
2021/01/15 18:08:55;;;;;;;19.48;12.30;;;;;;;-6.67;64.19;98274.34;1693379;84;20967;-63
2021/01/15 18:11:22;;;;;;;21.80;12.45;;;;;;;-6.66;64.20;98266.95;1693369;84;21050;-65
2021/01/15 18:13:52;;;;;;;23.83;13.13;;;;;;;-6.66;64.10;98264.34;1693462;84;21204;-64
2021/01/15 18:16:24;;;;;;;16.95;10.80;;;;;;;-6.65;64.09;98264.78;1693434;84;21468;-64
2021/01/15 18:18:55;;;;;;;15.48;10.98;;;;;;;-6.63;63.79;98265.64;1693433;84;20944;-64
2021/01/15 18:21:24;;;;;;;16.37;10.13;;;;;;;-6.62;63.79;98261.27;1693352;84;20956;-64
2021/01/15 18:23:53;;;;;;;14.07;9.37;;;;;;;-6.62;63.66;98259.55;1693771;84;21452;-65
2021/01/15 18:26:24;;;;;;;14.68;10.43;;;;;;;-6.61;63.00;98258.66;1693368;84;22009;-64
2021/01/15 18:28:51;;;;;;;11.63;8.75;;;;;;;-6.59;63.13;98259.95;1693349;84;20968;-63
2021/01/15 18:31:20;;;;;;;11.93;8.68;;;;;;;-6.59;63.13;98251.70;1693469;84;20904;-64
2021/01/15 18:33:50;;;;;;;11.18;7.95;;;;;;;-6.57;63.14;98255.17;1693416;84;20955;-63
2021/01/15 18:36:17;;;;;;;10.15;6.65;;;;;;;-6.57;62.92;98242.11;1693404;84;20951;-64
2021/01/15 18:38:45;;;;;;;8.48;6.47;;;;;;;-6.55;62.70;98246.88;1693367;84;21363;-64
2021/01/15 18:41:15;;;;;;;8.65;6.45;;;;;;;-6.52;62.60;98246.45;1693379;84;21023;-64
2021/01/15 18:43:42;;;;;;;9.48;6.33;;;;;;;-6.51;62.33;98236.00;1693357;84;21075;-64
2021/01/15 18:46:10;;;;;;;7.53;5.62;;;;;;;-6.49;62.29;98238.61;1693359;84;20956;-64
2021/01/15 18:48:44;;;;;;;9.18;5.90;;;;;;;-6.49;61.82;98226.41;1695550;84;20952;-64
2021/01/15 18:51:12;;;;;;;10.70;6.78;;;;;;;-6.49;61.95;98219.88;1693473;84;21371;-64
2021/01/15 18:53:41;;;;;;;8.95;6.15;;;;;;;-6.47;62.04;98233.79;1693270;84;20964;-64
2021/01/15 18:56:11;;;;;;;11.12;7.20;;;;;;;-6.47;61.94;98231.63;1693346;84;21023;-64
2021/01/15 18:58:38;;;;;;;9.53;6.70;;;;;;;-6.45;62.20;98232.03;1684551;84;21043;-65
2021/01/15 19:01:07;;;;;;;9.00;5.33;;;;;;;-6.42;62.11;98237.24;1693449;84;20944;-63
2021/01/15 19:03:34;;;;;;;8.40;5.60;;;;;;;-6.40;61.85;98239.85;1691270;83;21303;-64
2021/01/15 19:06:02;;;;;;;7.85;6.05;;;;;;;-6.39;61.70;98232.45;1715260;83;20960;-63
2021/01/15 19:08:30;;;;;;;8.73;6.20;;;;;;;-6.36;61.91;98237.67;1724583;83;21119;-63
2021/01/15 19:10:57;;;;;;;11.18;7.30;;;;;;;-6.36;61.75;98232.44;1724642;83;20913;-63
2021/01/15 19:13:26;;;;;;;9.00;6.20;;;;;;;-6.33;61.95;98237.66;1724748;82;21025;-64
2021/01/15 19:15:54;;;;;;;11.15;6.08;;;;;;;-6.32;61.65;98231.56;1724584;83;21357;-65
2021/01/15 19:18:21;;;;;;;10.90;7.28;;;;;;;-6.30;61.54;98245.48;1724522;83;20957;-67
2021/01/15 19:20:49;;;;;;;8.05;5.45;;;;;;;-6.29;61.42;98238.09;1724673;83;20956;-63
2021/01/15 19:23:19;;;;;;;6.53;4.17;;;;;;;-6.27;61.03;98250.70;1724636;83;20961;-63
2021/01/15 19:25:49;;;;;;;9.98;6.35;;;;;;;-6.27;61.34;98245.48;1724626;83;21032;-64
2021/01/15 19:28:20;;;;;;;8.88;4.72;;;;;;;-6.26;61.26;98240.69;1724655;83;21367;-65
2021/01/15 19:30:51;;;;;;;7.75;4.72;;;;;;;-6.25;61.18;98241.09;1724657;83;21010;-66
2021/01/15 19:33:20;;;;;;;8.13;5.65;;;;;;;-6.24;60.86;98237.62;1724256;83;20933;-65
2021/01/15 19:35:49;;;;;;;8.45;5.47;;;;;;;-6.21;61.08;98237.61;1724611;83;20956;-63
2021/01/15 19:38:21;;;;;;;8.83;6.42;;;;;;;-6.18;61.30;98241.52;1724712;83;21366;-63
2021/01/15 19:40:49;;;;;;;6.83;4.65;;;;;;;-6.14;61.53;98233.66;1724719;83;21214;-63
2021/01/15 19:43:18;;;;;;;9.08;6.22;;;;;;;-6.11;61.14;98237.56;1724659;83;21020;-64
2021/01/15 19:45:50;;;;;;;5.72;4.22;;;;;;;-6.09;61.39;98238.41;1724639;83;21016;-64
2021/01/15 19:48:17;;;;;;;7.30;4.65;;;;;;;-6.08;60.98;98237.55;1724649;83;20957;-64
2021/01/15 19:50:47;;;;;;;9.28;6.50;;;;;;;-6.06;60.98;98237.95;1724866;83;21000;-64
2021/01/15 19:53:18;;;;;;;8.33;5.10;;;;;;;-6.06;61.21;98231.41;1724798;83;21954;-65
2021/01/15 19:55:46;;;;;;;14.33;8.80;;;;;;;-6.04;61.07;98235.33;1724695;83;21029;-64
2021/01/15 19:58:15;;;;;;;11.97;7.70;;;;;;;-6.03;60.86;98233.16;1724718;82;21043;-64
2021/01/15 20:00:45;;;;;;;14.87;8.67;;;;;;;-6.02;61.03;98232.28;1725025;83;21044;-65
2021/01/15 20:03:14;;;;;;;10.78;7.67;;;;;;;-6.02;61.33;98244.05;1724611;83;21056;-65